sensor_id;sensor_type;location;lat;lon;timestamp;pressure;altitude;pressure_sealevel;temperature;humidity
30819;BME280;17546;42.674;23.284;2023-01-10T00:00:35;93960.56;;;10.17;49.73
30819;BME280;17546;42.674;23.284;2023-01-10T00:03:07;93959.41;;;10.72;48.13
30819;BME280;17546;42.674;23.284;2023-01-10T00:05:35;93968.25;;;10.35;49.23
30819;BME280;17546;42.674;23.284;2023-01-10T00:08:01;93952.06;;;10.45;49.50
30819;BME280;17546;42.674;23.284;2023-01-10T00:10:28;93962.75;;;10.29;49.71
30819;BME280;17546;42.674;23.284;2023-01-10T00:12:53;93957.63;;;10.75;48.57
30819;BME280;17546;42.674;23.284;2023-01-10T00:15:37;93968.84;;;10.88;48.00
30819;BME280;17546;42.674;23.284;2023-01-10T00:18:03;93948.06;;;10.46;48.86
30819;BME280;17546;42.674;23.284;2023-01-10T00:20:29;93952.44;;;10.66;48.65
30819;BME280;17546;42.674;23.284;2023-01-10T00:22:54;93940.44;;;10.82;48.04
30819;BME280;17546;42.674;23.284;2023-01-10T00:25:20;93933.41;;;10.09;49.98
30819;BME280;17546;42.674;23.284;2023-01-10T00:27:47;93945.69;;;10.20;49.45
30819;BME280;17546;42.674;23.284;2023-01-10T00:30:31;93942.25;;;10.08;49.72
30819;BME280;17546;42.674;23.284;2023-01-10T00:32:57;93926.78;;;10.24;49.71
30819;BME280;17546;42.674;23.284;2023-01-10T00:35:23;93963.44;;;10.41;48.91
30819;BME280;17546;42.674;23.284;2023-01-10T00:37:48;93941.97;;;10.83;48.18
30819;BME280;17546;42.674;23.284;2023-01-10T00:40:14;93936.88;;;10.87;48.32
30819;BME280;17546;42.674;23.284;2023-01-10T00:42:39;93895.72;;;10.06;49.53
30819;BME280;17546;42.674;23.284;2023-01-10T00:45:23;93879.03;;;10.18;49.43
30819;BME280;17546;42.674;23.284;2023-01-10T00:47:51;93866.94;;;9.38;51.40
30819;BME280;17546;42.674;23.284;2023-01-10T00:50:17;93920.47;;;9.40;51.47
30819;BME280;17546;42.674;23.284;2023-01-10T00:52:43;93904.59;;;9.93;50.17
30819;BME280;17546;42.674;23.284;2023-01-10T00:55:08;93925.75;;;10.27;49.19
30819;BME280;17546;42.674;23.284;2023-01-10T00:57:34;93914.72;;;10.57;48.88
30819;BME280;17546;42.674;23.284;2023-01-10T00:59:59;93935.56;;;10.64;48.83
30819;BME280;17546;42.674;23.284;2023-01-10T01:02:25;93894.84;;;10.23;49.50
30819;BME280;17546;42.674;23.284;2023-01-10T01:04:51;93909.44;;;10.59;48.59
30819;BME280;17546;42.674;23.284;2023-01-10T01:07:16;93894.16;;;10.47;49.02
30819;BME280;17546;42.674;23.284;2023-01-10T01:09:41;93898.75;;;10.69;48.08
30819;BME280;17546;42.674;23.284;2023-01-10T01:12:25;93917.00;;;10.59;48.59
30819;BME280;17546;42.674;23.284;2023-01-10T01:14:51;93905.34;;;10.90;47.96
30819;BME280;17546;42.674;23.284;2023-01-10T01:17:17;93915.53;;;11.07;47.59
30819;BME280;17546;42.674;23.284;2023-01-10T01:19:42;93908.59;;;11.19;47.49
30819;BME280;17546;42.674;23.284;2023-01-10T01:22:08;93908.94;;;11.10;47.34
30819;BME280;17546;42.674;23.284;2023-01-10T01:24:33;93890.03;;;10.89;47.85
30819;BME280;17546;42.674;23.284;2023-01-10T01:26:59;93910.34;;;11.22;47.31
30819;BME280;17546;42.674;23.284;2023-01-10T01:29:24;93907.66;;;10.86;47.88
30819;BME280;17546;42.674;23.284;2023-01-10T01:31:50;93893.81;;;11.11;47.61
30819;BME280;17546;42.674;23.284;2023-01-10T01:34:15;93919.19;;;11.40;46.72
30819;BME280;17546;42.674;23.284;2023-01-10T01:36:40;93907.75;;;11.05;47.23
30819;BME280;17546;42.674;23.284;2023-01-10T01:39:06;93874.06;;;10.71;47.73
30819;BME280;17546;42.674;23.284;2023-01-10T01:41:31;93896.47;;;10.73;48.10
30819;BME280;17546;42.674;23.284;2023-01-10T01:44:17;93880.75;;;10.57;48.71
30819;BME280;17546;42.674;23.284;2023-01-10T01:46:49;93884.97;;;11.12;47.49
30819;BME280;17546;42.674;23.284;2023-01-10T01:49:21;93892.56;;;11.31;46.97
30819;BME280;17546;42.674;23.284;2023-01-10T01:51:51;93886.78;;;11.10;47.41
30819;BME280;17546;42.674;23.284;2023-01-10T01:54:19;93875.97;;;11.06;47.34
30819;BME280;17546;42.674;23.284;2023-01-10T01:59:15;93882.84;;;11.43;46.88
30819;BME280;17546;42.674;23.284;2023-01-10T02:01:44;93848.28;;;11.25;47.05
30819;BME280;17546;42.674;23.284;2023-01-10T02:04:16;93832.53;;;11.14;46.85
30819;BME280;17546;42.674;23.284;2023-01-10T02:06:45;93827.28;;;10.92;47.52
30819;BME280;17546;42.674;23.284;2023-01-10T02:09:17;93856.19;;;11.15;47.00
30819;BME280;17546;42.674;23.284;2023-01-10T02:11:45;93849.59;;;11.43;46.53
30819;BME280;17546;42.674;23.284;2023-01-10T02:14:12;93858.97;;;11.40;46.53
30819;BME280;17546;42.674;23.284;2023-01-10T02:16:38;93859.28;;;11.55;46.27
30819;BME280;17546;42.674;23.284;2023-01-10T02:19:12;93834.16;;;10.85;47.57
30819;BME280;17546;42.674;23.284;2023-01-10T02:24:42;93827.91;;;11.42;46.56
30819;BME280;17546;42.674;23.284;2023-01-10T02:33:02;93829.72;;;11.58;46.57
30819;BME280;17546;42.674;23.284;2023-01-10T02:41:07;93817.84;;;11.20;47.15
30819;BME280;17546;42.674;23.284;2023-01-10T02:43:42;93833.47;;;11.23;46.98
30819;BME280;17546;42.674;23.284;2023-01-10T02:46:15;93824.50;;;11.35;46.80
30819;BME280;17546;42.674;23.284;2023-01-10T02:48:41;93812.41;;;11.52;46.74
30819;BME280;17546;42.674;23.284;2023-01-10T02:51:29;93826.28;;;11.52;46.73
30819;BME280;17546;42.674;23.284;2023-01-10T02:54:06;93828.59;;;11.48;46.68
30819;BME280;17546;42.674;23.284;2023-01-10T03:06:53;93858.56;;;11.68;46.31
30819;BME280;17546;42.674;23.284;2023-01-10T03:09:34;93854.75;;;11.52;46.52
30819;BME280;17546;42.674;23.284;2023-01-10T03:12:26;93844.69;;;11.30;46.97
30819;BME280;17546;42.674;23.284;2023-01-10T03:14:56;93849.22;;;11.33;46.67
30819;BME280;17546;42.674;23.284;2023-01-10T03:17:23;93860.09;;;10.82;48.07
30819;BME280;17546;42.674;23.284;2023-01-10T03:19:52;93848.19;;;11.12;47.62
30819;BME280;17546;42.674;23.284;2023-01-10T03:22:22;93864.47;;;11.21;47.13
30819;BME280;17546;42.674;23.284;2023-01-10T03:24:52;93856.97;;;11.16;47.42
30819;BME280;17546;42.674;23.284;2023-01-10T03:32:51;93845.56;;;11.01;47.62
30819;BME280;17546;42.674;23.284;2023-01-10T03:35:19;93859.13;;;10.80;48.06
30819;BME280;17546;42.674;23.284;2023-01-10T03:37:54;93836.38;;;10.87;48.32
30819;BME280;17546;42.674;23.284;2023-01-10T03:40:27;93837.38;;;10.89;47.84
30819;BME280;17546;42.674;23.284;2023-01-10T03:46:03;93840.72;;;11.07;47.72
30819;BME280;17546;42.674;23.284;2023-01-10T03:48:34;93842.59;;;11.36;47.17
30819;BME280;17546;42.674;23.284;2023-01-10T03:51:03;93840.81;;;11.58;46.69
30819;BME280;17546;42.674;23.284;2023-01-10T03:53:31;93841.41;;;11.70;46.58
30819;BME280;17546;42.674;23.284;2023-01-10T03:55:57;93812.84;;;11.56;46.82
30819;BME280;17546;42.674;23.284;2023-01-10T03:58:23;93790.31;;;11.27;46.81
30819;BME280;17546;42.674;23.284;2023-01-10T04:00:49;93781.00;;;11.63;46.33
30819;BME280;17546;42.674;23.284;2023-01-10T04:03:15;93766.44;;;11.56;46.18
30819;BME280;17546;42.674;23.284;2023-01-10T04:05:41;93770.91;;;11.78;45.77
30819;BME280;17546;42.674;23.284;2023-01-10T04:08:07;93758.75;;;11.82;45.78
30819;BME280;17546;42.674;23.284;2023-01-10T04:10:32;93744.44;;;11.45;46.39
30819;BME280;17546;42.674;23.284;2023-01-10T04:12:59;93767.34;;;11.46;46.13
30819;BME280;17546;42.674;23.284;2023-01-10T04:15:25;93751.84;;;11.56;46.22
30819;BME280;17546;42.674;23.284;2023-01-10T04:17:51;93761.97;;;11.53;46.25
30819;BME280;17546;42.674;23.284;2023-01-10T04:20:16;93764.53;;;11.51;46.51
30819;BME280;17546;42.674;23.284;2023-01-10T04:22:43;93787.72;;;11.67;46.31
30819;BME280;17546;42.674;23.284;2023-01-10T04:25:09;93803.16;;;11.82;46.16
30819;BME280;17546;42.674;23.284;2023-01-10T04:27:34;93819.44;;;11.91;45.89
30819;BME280;17546;42.674;23.284;2023-01-10T04:30:00;93837.19;;;12.01;45.58
30819;BME280;17546;42.674;23.284;2023-01-10T04:32:25;93843.34;;;11.75;46.04
30819;BME280;17546;42.674;23.284;2023-01-10T04:34:51;93847.72;;;11.89;45.65
30819;BME280;17546;42.674;23.284;2023-01-10T04:37:18;93855.06;;;11.87;45.54
30819;BME280;17546;42.674;23.284;2023-01-10T04:39:44;93851.81;;;11.83;45.72
30819;BME280;17546;42.674;23.284;2023-01-10T04:42:09;93842.31;;;11.59;46.04
30819;BME280;17546;42.674;23.284;2023-01-10T04:44:35;93835.19;;;11.83;45.73
30819;BME280;17546;42.674;23.284;2023-01-10T04:47:00;93830.81;;;11.87;45.52
30819;BME280;17546;42.674;23.284;2023-01-10T04:49:26;93807.44;;;11.64;45.92
30819;BME280;17546;42.674;23.284;2023-01-10T04:51:51;93818.91;;;11.92;45.45
30819;BME280;17546;42.674;23.284;2023-01-10T04:54:20;93823.72;;;11.92;45.81
30819;BME280;17546;42.674;23.284;2023-01-10T04:56:46;93828.56;;;12.05;45.72
30819;BME280;17546;42.674;23.284;2023-01-10T04:59:11;93824.38;;;11.98;45.41
30819;BME280;17546;42.674;23.284;2023-01-10T05:01:37;93803.53;;;11.72;45.73
30819;BME280;17546;42.674;23.284;2023-01-10T05:04:04;93810.50;;;11.79;45.75
30819;BME280;17546;42.674;23.284;2023-01-10T05:06:30;93818.00;;;12.03;45.37
30819;BME280;17546;42.674;23.284;2023-01-10T05:08:56;93819.50;;;11.85;45.40
30819;BME280;17546;42.674;23.284;2023-01-10T05:11:21;93806.16;;;11.84;45.36
30819;BME280;17546;42.674;23.284;2023-01-10T05:13:47;93805.25;;;11.94;45.45
30819;BME280;17546;42.674;23.284;2023-01-10T05:16:12;93807.94;;;11.81;45.38
30819;BME280;17546;42.674;23.284;2023-01-10T05:18:38;93778.06;;;11.74;45.67
30819;BME280;17546;42.674;23.284;2023-01-10T05:21:09;93775.13;;;11.66;45.66
30819;BME280;17546;42.674;23.284;2023-01-10T05:23:35;93775.72;;;11.78;45.48
30819;BME280;17546;42.674;23.284;2023-01-10T05:26:05;93778.88;;;11.88;45.49
30819;BME280;17546;42.674;23.284;2023-01-10T05:28:31;93781.88;;;11.71;45.97
30819;BME280;17546;42.674;23.284;2023-01-10T05:30:56;93783.19;;;11.83;45.30
30819;BME280;17546;42.674;23.284;2023-01-10T05:33:22;93783.59;;;11.55;46.06
30819;BME280;17546;42.674;23.284;2023-01-10T05:35:47;93802.09;;;11.85;45.52
30819;BME280;17546;42.674;23.284;2023-01-10T05:38:13;93816.19;;;11.87;45.54
30819;BME280;17546;42.674;23.284;2023-01-10T05:40:38;93815.00;;;12.01;45.46
30819;BME280;17546;42.674;23.284;2023-01-10T05:43:03;93824.03;;;11.69;45.57
30819;BME280;17546;42.674;23.284;2023-01-10T05:45:29;93822.16;;;11.77;45.55
30819;BME280;17546;42.674;23.284;2023-01-10T05:47:54;93805.56;;;11.91;45.17
30819;BME280;17546;42.674;23.284;2023-01-10T05:50:20;93805.44;;;11.64;46.05
30819;BME280;17546;42.674;23.284;2023-01-10T05:52:45;93790.91;;;11.58;46.01
30819;BME280;17546;42.674;23.284;2023-01-10T05:55:10;93791.75;;;11.85;45.46
30819;BME280;17546;42.674;23.284;2023-01-10T05:57:36;93801.38;;;11.84;45.47
30819;BME280;17546;42.674;23.284;2023-01-10T06:00:03;93811.69;;;11.84;45.50
30819;BME280;17546;42.674;23.284;2023-01-10T06:02:28;93815.31;;;11.78;45.57
30819;BME280;17546;42.674;23.284;2023-01-10T06:04:54;93811.56;;;11.95;45.38
30819;BME280;17546;42.674;23.284;2023-01-10T06:07:21;93802.88;;;11.66;45.68
30819;BME280;17546;42.674;23.284;2023-01-10T06:09:46;93804.69;;;11.07;47.19
30819;BME280;17546;42.674;23.284;2023-01-10T06:12:11;93807.16;;;11.29;46.74
30819;BME280;17546;42.674;23.284;2023-01-10T06:14:37;93823.78;;;11.48;46.37
30819;BME280;17546;42.674;23.284;2023-01-10T06:17:02;93814.13;;;11.74;45.91
30819;BME280;17546;42.674;23.284;2023-01-10T06:19:32;93808.19;;;11.83;45.80
30819;BME280;17546;42.674;23.284;2023-01-10T06:21:58;93816.28;;;12.00;45.32
30819;BME280;17546;42.674;23.284;2023-01-10T06:24:23;93814.16;;;12.06;45.25
30819;BME280;17546;42.674;23.284;2023-01-10T06:26:49;93815.69;;;12.20;45.12
30819;BME280;17546;42.674;23.284;2023-01-10T06:29:14;93815.06;;;12.28;45.08
30819;BME280;17546;42.674;23.284;2023-01-10T06:31:40;93813.44;;;12.19;45.08
30819;BME280;17546;42.674;23.284;2023-01-10T06:34:05;93809.66;;;12.35;45.04
30819;BME280;17546;42.674;23.284;2023-01-10T06:36:30;93807.19;;;12.45;44.98
30819;BME280;17546;42.674;23.284;2023-01-10T06:38:56;93802.09;;;12.49;44.99
30819;BME280;17546;42.674;23.284;2023-01-10T06:41:21;93819.19;;;12.53;45.11
30819;BME280;17546;42.674;23.284;2023-01-10T06:43:48;93812.78;;;12.58;45.32
30819;BME280;17546;42.674;23.284;2023-01-10T06:46:15;93807.00;;;12.56;45.63
30819;BME280;17546;42.674;23.284;2023-01-10T06:48:41;93815.00;;;12.47;45.88
30819;BME280;17546;42.674;23.284;2023-01-10T06:51:11;93816.63;;;12.55;45.48
30819;BME280;17546;42.674;23.284;2023-01-10T06:53:37;93820.66;;;12.54;45.72
30819;BME280;17546;42.674;23.284;2023-01-10T06:56:02;93809.25;;;12.58;46.11
30819;BME280;17546;42.674;23.284;2023-01-10T06:58:30;93806.38;;;12.64;46.05
30819;BME280;17546;42.674;23.284;2023-01-10T07:00:55;93798.28;;;12.66;45.38
30819;BME280;17546;42.674;23.284;2023-01-10T07:03:21;93797.41;;;12.71;45.82
30819;BME280;17546;42.674;23.284;2023-01-10T07:05:46;93791.72;;;12.76;46.22
30819;BME280;17546;42.674;23.284;2023-01-10T07:08:12;93794.31;;;12.88;45.90
30819;BME280;17546;42.674;23.284;2023-01-10T07:10:41;93793.78;;;12.89;46.29
30819;BME280;17546;42.674;23.284;2023-01-10T07:13:06;93786.72;;;12.88;46.18
30819;BME280;17546;42.674;23.284;2023-01-10T07:15:32;93779.66;;;13.00;45.87
30819;BME280;17546;42.674;23.284;2023-01-10T07:17:58;93777.53;;;12.93;45.93
30819;BME280;17546;42.674;23.284;2023-01-10T07:20:23;93774.44;;;12.97;45.87
30819;BME280;17546;42.674;23.284;2023-01-10T07:22:53;93772.41;;;12.84;46.62
30819;BME280;17546;42.674;23.284;2023-01-10T07:25:20;93787.16;;;12.92;46.50
30819;BME280;17546;42.674;23.284;2023-01-10T07:27:45;93783.94;;;13.01;46.43
30819;BME280;17546;42.674;23.284;2023-01-10T07:30:11;93779.88;;;13.02;46.55
30819;BME280;17546;42.674;23.284;2023-01-10T07:32:36;93765.44;;;13.04;46.50
30819;BME280;17546;42.674;23.284;2023-01-10T07:35:02;93770.56;;;13.00;46.71
30819;BME280;17546;42.674;23.284;2023-01-10T07:37:27;93764.50;;;12.88;46.93
30819;BME280;17546;42.674;23.284;2023-01-10T07:39:53;93778.38;;;13.01;46.66
30819;BME280;17546;42.674;23.284;2023-01-10T07:42:18;93761.19;;;12.90;46.65
30819;BME280;17546;42.674;23.284;2023-01-10T07:44:43;93766.63;;;12.95;46.79
30819;BME280;17546;42.674;23.284;2023-01-10T07:47:09;93763.41;;;12.91;47.17
30819;BME280;17546;42.674;23.284;2023-01-10T07:49:34;93765.88;;;12.81;47.36
30819;BME280;17546;42.674;23.284;2023-01-10T07:52:00;93766.63;;;12.82;47.22
30819;BME280;17546;42.674;23.284;2023-01-10T07:54:25;93762.16;;;12.79;47.27
30819;BME280;17546;42.674;23.284;2023-01-10T07:56:50;93767.50;;;12.64;47.61
30819;BME280;17546;42.674;23.284;2023-01-10T07:59:16;93756.81;;;12.68;47.79
30819;BME280;17546;42.674;23.284;2023-01-10T08:01:41;93759.75;;;12.43;48.27
30819;BME280;17546;42.674;23.284;2023-01-10T08:04:08;93764.50;;;12.61;47.94
30819;BME280;17546;42.674;23.284;2023-01-10T08:06:33;93764.81;;;12.58;48.10
30819;BME280;17546;42.674;23.284;2023-01-10T08:08:59;93759.69;;;12.49;48.42
30819;BME280;17546;42.674;23.284;2023-01-10T08:11:24;93762.75;;;12.32;48.97
30819;BME280;17546;42.674;23.284;2023-01-10T08:13:49;93764.59;;;12.56;48.20
30819;BME280;17546;42.674;23.284;2023-01-10T08:16:15;93764.28;;;12.59;48.52
30819;BME280;17546;42.674;23.284;2023-01-10T08:18:40;93765.13;;;12.54;48.69
30819;BME280;17546;42.674;23.284;2023-01-10T08:21:07;93756.91;;;12.49;48.76
30819;BME280;17546;42.674;23.284;2023-01-10T08:23:34;93748.78;;;12.51;48.64
30819;BME280;17546;42.674;23.284;2023-01-10T08:26:00;93749.59;;;12.32;49.18
30819;BME280;17546;42.674;23.284;2023-01-10T08:28:26;93731.69;;;12.47;48.79
30819;BME280;17546;42.674;23.284;2023-01-10T08:30:51;93728.38;;;12.48;49.16
30819;BME280;17546;42.674;23.284;2023-01-10T08:33:20;93723.56;;;12.49;48.88
30819;BME280;17546;42.674;23.284;2023-01-10T08:35:45;93733.94;;;12.48;48.86
30819;BME280;17546;42.674;23.284;2023-01-10T08:38:10;93732.22;;;12.58;48.67
30819;BME280;17546;42.674;23.284;2023-01-10T08:40:36;93726.66;;;12.32;49.50
30819;BME280;17546;42.674;23.284;2023-01-10T08:43:05;93721.97;;;12.40;49.25
30819;BME280;17546;42.674;23.284;2023-01-10T08:45:30;93727.94;;;12.17;49.68
30819;BME280;17546;42.674;23.284;2023-01-10T08:47:56;93722.22;;;11.96;50.09
30819;BME280;17546;42.674;23.284;2023-01-10T08:50:22;93721.50;;;12.09;49.50
30819;BME280;17546;42.674;23.284;2023-01-10T08:52:48;93721.91;;;12.00;49.85
30819;BME280;17546;42.674;23.284;2023-01-10T08:55:15;93704.59;;;11.94;50.10
30819;BME280;17546;42.674;23.284;2023-01-10T08:57:41;93725.56;;;12.08;49.83
30819;BME280;17546;42.674;23.284;2023-01-10T09:00:06;93720.84;;;12.03;49.96
30819;BME280;17546;42.674;23.284;2023-01-10T09:02:32;93704.63;;;11.75;50.26
30819;BME280;17546;42.674;23.284;2023-01-10T09:04:58;93712.50;;;12.03;49.88
30819;BME280;17546;42.674;23.284;2023-01-10T09:07:23;93708.28;;;12.15;49.80
30819;BME280;17546;42.674;23.284;2023-01-10T09:09:48;93699.28;;;11.96;50.35
30819;BME280;17546;42.674;23.284;2023-01-10T09:12:14;93697.38;;;12.04;50.14
30819;BME280;17546;42.674;23.284;2023-01-10T09:14:58;93700.00;;;11.96;50.14
30819;BME280;17546;42.674;23.284;2023-01-10T09:17:23;93712.00;;;11.72;50.79
30819;BME280;17546;42.674;23.284;2023-01-10T09:19:49;93704.19;;;11.57;51.20
30819;BME280;17546;42.674;23.284;2023-01-10T09:22:14;93699.31;;;11.45;51.58
30819;BME280;17546;42.674;23.284;2023-01-10T09:24:40;93701.97;;;11.69;50.89
30819;BME280;17546;42.674;23.284;2023-01-10T09:27:08;93699.44;;;11.85;50.49
30819;BME280;17546;42.674;23.284;2023-01-10T09:29:34;93705.41;;;11.24;51.77
30819;BME280;17546;42.674;23.284;2023-01-10T09:31:59;93696.44;;;11.18;51.95
30819;BME280;17546;42.674;23.284;2023-01-10T09:34:25;93699.66;;;11.22;51.99
30819;BME280;17546;42.674;23.284;2023-01-10T09:36:52;93694.00;;;11.47;51.76
30819;BME280;17546;42.674;23.284;2023-01-10T09:39:17;93675.81;;;11.32;51.54
30819;BME280;17546;42.674;23.284;2023-01-10T09:47:21;93664.97;;;11.48;51.53
30819;BME280;17546;42.674;23.284;2023-01-10T09:50:16;93661.97;;;11.46;51.70
30819;BME280;17546;42.674;23.284;2023-01-10T09:52:48;93668.19;;;11.20;52.39
30819;BME280;17546;42.674;23.284;2023-01-10T09:55:35;93668.16;;;10.87;53.49
30819;BME280;17546;42.674;23.284;2023-01-10T09:58:12;93669.56;;;10.75;53.94
30819;BME280;17546;42.674;23.284;2023-01-10T10:00:41;93655.09;;;10.82;53.59
30819;BME280;17546;42.674;23.284;2023-01-10T10:03:30;93648.06;;;10.81;53.54
30819;BME280;17546;42.674;23.284;2023-01-10T10:05:57;93640.72;;;10.84;53.84
30819;BME280;17546;42.674;23.284;2023-01-10T10:08:23;93633.88;;;11.23;52.85
30819;BME280;17546;42.674;23.284;2023-01-10T10:11:17;93634.69;;;11.50;52.61
30819;BME280;17546;42.674;23.284;2023-01-10T10:25:17;93641.88;;;11.72;52.10
30819;BME280;17546;42.674;23.284;2023-01-10T10:28:23;93638.91;;;11.83;52.08
30819;BME280;17546;42.674;23.284;2023-01-10T10:31:06;93635.81;;;11.73;51.96
30819;BME280;17546;42.674;23.284;2023-01-10T10:36:26;93620.50;;;12.12;51.39
30819;BME280;17546;42.674;23.284;2023-01-10T10:38:56;93622.09;;;12.21;51.35
30819;BME280;17546;42.674;23.284;2023-01-10T10:41:45;93613.56;;;12.06;51.27
30819;BME280;17546;42.674;23.284;2023-01-10T10:44:35;93623.47;;;12.28;50.99
30819;BME280;17546;42.674;23.284;2023-01-10T10:47:12;93611.63;;;12.27;50.93
30819;BME280;17546;42.674;23.284;2023-01-10T10:52:30;93599.56;;;12.25;50.98
30819;BME280;17546;42.674;23.284;2023-01-10T10:54:59;93602.56;;;12.27;51.04
30819;BME280;17546;42.674;23.284;2023-01-10T10:57:27;93602.13;;;12.36;50.90
30819;BME280;17546;42.674;23.284;2023-01-10T10:59:53;93607.16;;;12.11;51.17
30819;BME280;17546;42.674;23.284;2023-01-10T11:02:28;93610.69;;;11.98;51.86
30819;BME280;17546;42.674;23.284;2023-01-10T11:05:02;93617.50;;;11.97;51.73
30819;BME280;17546;42.674;23.284;2023-01-10T11:07:32;93604.69;;;12.20;51.09
30819;BME280;17546;42.674;23.284;2023-01-10T11:10:29;93604.91;;;12.23;51.33
30819;BME280;17546;42.674;23.284;2023-01-10T11:15:46;93592.53;;;12.24;51.35
30819;BME280;17546;42.674;23.284;2023-01-10T11:18:15;93588.03;;;12.20;51.20
30819;BME280;17546;42.674;23.284;2023-01-10T11:23:58;93583.09;;;12.40;51.09
30819;BME280;17546;42.674;23.284;2023-01-10T11:28:50;93581.53;;;12.18;51.79
30819;BME280;17546;42.674;23.284;2023-01-10T11:31:26;93594.25;;;12.13;51.95
30819;BME280;17546;42.674;23.284;2023-01-10T11:33:52;93589.94;;;12.26;51.69
30819;BME280;17546;42.674;23.284;2023-01-10T11:36:18;93584.22;;;12.24;51.56
30819;BME280;17546;42.674;23.284;2023-01-10T11:38:59;93583.56;;;12.17;51.78
30819;BME280;17546;42.674;23.284;2023-01-10T11:41:26;93577.38;;;12.25;51.65
30819;BME280;17546;42.674;23.284;2023-01-10T11:46:42;93577.59;;;12.13;52.04
30819;BME280;17546;42.674;23.284;2023-01-10T11:49:15;93573.41;;;12.33;51.60
30819;BME280;17546;42.674;23.284;2023-01-10T11:51:57;93572.75;;;12.27;51.71
30819;BME280;17546;42.674;23.284;2023-01-10T11:54:27;93570.50;;;12.39;51.03
30819;BME280;17546;42.674;23.284;2023-01-10T11:57:07;93571.50;;;12.28;51.23
30819;BME280;17546;42.674;23.284;2023-01-10T11:59:34;93575.00;;;12.29;51.67
30819;BME280;17546;42.674;23.284;2023-01-10T12:02:25;93575.72;;;12.43;51.30
30819;BME280;17546;42.674;23.284;2023-01-10T12:04:53;93569.31;;;12.48;51.47
30819;BME280;17546;42.674;23.284;2023-01-10T12:07:20;93567.72;;;12.52;51.37
30819;BME280;17546;42.674;23.284;2023-01-10T12:10:01;93572.19;;;12.55;51.17
30819;BME280;17546;42.674;23.284;2023-01-10T12:12:31;93570.28;;;12.50;51.50
30819;BME280;17546;42.674;23.284;2023-01-10T12:15:44;93563.47;;;12.25;51.92
30819;BME280;17546;42.674;23.284;2023-01-10T12:17:45;93563.16;;;12.28;51.92
30819;BME280;17546;42.674;23.284;2023-01-10T12:20:12;93578.03;;;12.17;52.31
30819;BME280;17546;42.674;23.284;2023-01-10T12:22:44;93575.69;;;11.95;52.74
30819;BME280;17546;42.674;23.284;2023-01-10T12:25:29;93575.69;;;12.08;52.50
30819;BME280;17546;42.674;23.284;2023-01-10T12:27:56;93576.94;;;11.81;52.80
30819;BME280;17546;42.674;23.284;2023-01-10T12:33:00;93578.66;;;12.10;52.48
30819;BME280;17546;42.674;23.284;2023-01-10T12:35:41;93586.34;;;11.91;52.98
30819;BME280;17546;42.674;23.284;2023-01-10T12:38:32;93570.72;;;11.61;54.14
30819;BME280;17546;42.674;23.284;2023-01-10T12:41:26;93565.00;;;11.99;53.14
30819;BME280;17546;42.674;23.284;2023-01-10T12:44:17;93569.38;;;11.94;53.41
30819;BME280;17546;42.674;23.284;2023-01-10T12:46:48;93555.81;;;12.17;52.93
30819;BME280;17546;42.674;23.284;2023-01-10T12:51:48;93551.09;;;12.26;52.44
30819;BME280;17546;42.674;23.284;2023-01-10T12:54:18;93568.81;;;12.23;53.11
30819;BME280;17546;42.674;23.284;2023-01-10T12:56:45;93577.97;;;12.44;52.61
30819;BME280;17546;42.674;23.284;2023-01-10T12:59:34;93579.84;;;12.15;53.15
30819;BME280;17546;42.674;23.284;2023-01-10T13:02:21;93581.28;;;12.43;52.34
30819;BME280;17546;42.674;23.284;2023-01-10T13:04:55;93578.63;;;12.50;52.23
30819;BME280;17546;42.674;23.284;2023-01-10T13:07:26;93589.91;;;12.66;51.97
30819;BME280;17546;42.674;23.284;2023-01-10T13:09:54;93581.56;;;12.66;52.02
30819;BME280;17546;42.674;23.284;2023-01-10T13:12:36;93585.78;;;12.80;51.62
30819;BME280;17546;42.674;23.284;2023-01-10T13:15:05;93583.63;;;12.86;51.59
30819;BME280;17546;42.674;23.284;2023-01-10T13:17:35;93583.63;;;12.86;51.59
30819;BME280;17546;42.674;23.284;2023-01-10T13:22:55;93590.41;;;12.77;51.67
30819;BME280;17546;42.674;23.284;2023-01-10T13:25:27;93592.09;;;12.80;51.56
30819;BME280;17546;42.674;23.284;2023-01-10T13:28:13;93598.16;;;12.92;51.30
30819;BME280;17546;42.674;23.284;2023-01-10T13:30:40;93600.06;;;12.97;51.31
30819;BME280;17546;42.674;23.284;2023-01-10T13:33:25;93595.34;;;13.06;51.16
30819;BME280;17546;42.674;23.284;2023-01-10T13:35:56;93590.50;;;13.06;51.10
30819;BME280;17546;42.674;23.284;2023-01-10T13:38:49;93595.53;;;13.08;50.96
30819;BME280;17546;42.674;23.284;2023-01-10T13:41:16;93601.38;;;13.17;50.75
30819;BME280;17546;42.674;23.284;2023-01-10T13:46:32;93588.81;;;13.24;50.57
30819;BME280;17546;42.674;23.284;2023-01-10T13:51:28;93599.28;;;13.31;50.46
30819;BME280;17546;42.674;23.284;2023-01-10T13:53:59;93603.66;;;13.27;50.49
30819;BME280;17546;42.674;23.284;2023-01-10T13:58:53;93607.31;;;13.00;51.09
30819;BME280;17546;42.674;23.284;2023-01-10T14:01:37;93595.00;;;12.75;51.77
30819;BME280;17546;42.674;23.284;2023-01-10T14:05:03;93588.38;;;12.17;53.24
30819;BME280;17546;42.674;23.284;2023-01-10T14:07:33;93596.25;;;12.39;52.72
30819;BME280;17546;42.674;23.284;2023-01-10T14:10:08;93599.78;;;12.27;53.04
30819;BME280;17546;42.674;23.284;2023-01-10T14:15:28;93594.53;;;12.36;52.82
30819;BME280;17546;42.674;23.284;2023-01-10T14:20:24;93592.66;;;12.05;53.57
30819;BME280;17546;42.674;23.284;2023-01-10T14:23:02;93593.81;;;12.09;53.31
30819;BME280;17546;42.674;23.284;2023-01-10T14:25:31;93604.06;;;11.88;53.39
30819;BME280;17546;42.674;23.284;2023-01-10T14:27:59;93614.41;;;12.01;53.32
30819;BME280;17546;42.674;23.284;2023-01-10T14:33:47;93604.69;;;11.94;53.11
30819;BME280;17546;42.674;23.284;2023-01-10T14:36:44;93604.84;;;11.56;53.97